Time;durP1;ratioP1;P1;durP2;ratioP2;P2;SDS_P1;SDS_P2;PMS_P1;PMS_P2;Temp;Humidity;BMP_temperature;BMP_pressure;BME280_temperature;BME280_humidity;BME280_pressure;Samples;Min_cycle;Max_cycle;Signal;HPM_P1;HPM_P2
2023/10/20 00:00:19;;;;;;;6.88;4.35;;;;;;;15.11;51.93;98405.72;5091248;28;20024;-72
2023/10/20 00:02:44;;;;;;;7.18;4.30;;;;;;;15.10;52.01;98393.59;5090053;28;20043;-73
2023/10/20 00:05:10;;;;;;;6.05;4.30;;;;;;;15.11;51.87;98387.31;5089404;28;20028;-72
2023/10/20 00:07:36;;;;;;;6.07;4.15;;;;;;;15.06;52.12;98401.94;5073150;28;20497;-73
2023/10/20 00:10:03;;;;;;;7.43;4.15;;;;;;;15.01;52.20;98384.81;5089914;28;20032;-72
2023/10/20 00:12:29;;;;;;;6.28;4.45;;;;;;;14.99;52.18;98388.56;5073159;28;20056;-72
2023/10/20 00:14:55;;;;;;;5.45;4.10;;;;;;;15.02;52.20;98383.84;5093300;28;20031;-72
2023/10/20 00:17:21;;;;;;;4.82;3.88;;;;;;;14.99;52.34;98384.13;5094256;28;20038;-72
2023/10/20 00:19:47;;;;;;;7.38;4.35;;;;;;;14.96;52.18;98371.31;5094119;28;20032;-73
2023/10/20 00:22:12;;;;;;;5.38;4.00;;;;;;;14.96;52.34;98373.94;5094110;28;20063;-72
2023/10/20 00:24:37;;;;;;;6.88;4.05;;;;;;;14.94;52.28;98377.69;5095045;28;20024;-72
2023/10/20 00:27:03;;;;;;;5.82;4.55;;;;;;;14.92;52.38;98371.75;5093992;28;20032;-72
2023/10/20 00:29:29;;;;;;;5.95;3.83;;;;;;;14.91;52.40;98380.63;5095177;28;20432;-72
2023/10/20 00:31:54;;;;;;;6.78;4.22;;;;;;;14.89;52.51;98366.81;5095123;28;20032;-73
2023/10/20 00:34:20;;;;;;;7.13;4.10;;;;;;;14.86;52.58;98381.06;5092919;28;20387;-72
2023/10/20 00:36:45;;;;;;;6.38;4.10;;;;;;;14.84;52.49;98377.78;5093798;28;20032;-73
2023/10/20 00:39:12;;;;;;;5.25;3.78;;;;;;;14.73;52.62;98360.44;5076840;28;20032;-72
2023/10/20 00:41:38;;;;;;;8.32;4.47;;;;;;;14.80;52.88;98373.78;5093769;28;20031;-73
2023/10/20 00:44:04;;;;;;;7.13;4.15;;;;;;;14.73;52.78;98378.84;5094778;28;20020;-72
2023/10/20 00:46:29;;;;;;;6.85;4.50;;;;;;;14.76;52.78;98385.59;5076628;28;20036;-73
2023/10/20 00:48:55;;;;;;;6.55;4.28;;;;;;;14.74;53.03;98392.81;5076746;28;20514;-72
2023/10/20 00:51:21;;;;;;;5.63;4.25;;;;;;;14.71;53.07;98382.63;5059938;28;20089;-73
2023/10/20 00:53:47;;;;;;;7.05;4.65;;;;;;;14.73;52.85;98378.03;5076438;28;20032;-73
2023/10/20 00:56:13;;;;;;;6.28;3.90;;;;;;;14.71;52.98;98377.38;5076848;28;20032;-72
2023/10/20 00:58:38;;;;;;;6.03;4.25;;;;;;;14.71;52.96;98375.56;5076447;28;20558;-73
2023/10/20 01:01:04;;;;;;;6.95;4.43;;;;;;;14.67;53.23;98376.81;5093743;28;20024;-73
2023/10/20 01:03:32;;;;;;;5.88;4.55;;;;;;;14.67;53.21;98370.75;5094486;28;20032;-73
2023/10/20 01:05:58;;;;;;;8.00;4.45;;;;;;;14.65;53.23;98370.91;5094391;28;20039;-72
2023/10/20 01:08:23;;;;;;;6.95;4.30;;;;;;;14.61;53.18;98359.03;5075824;28;20442;-71
2023/10/20 01:10:49;;;;;;;5.90;4.03;;;;;;;14.57;53.30;98355.88;5076207;28;20055;-72
2023/10/20 01:13:15;;;;;;;5.50;4.25;;;;;;;14.61;53.37;98364.28;5076005;28;20105;-72
2023/10/20 01:15:41;;;;;;;7.63;4.38;;;;;;;14.55;53.43;98364.88;5092844;28;20024;-71
2023/10/20 01:18:07;;;;;;;8.45;4.28;;;;;;;14.53;53.38;98362.41;5059700;28;20036;-72
2023/10/20 01:20:32;;;;;;;5.63;4.40;;;;;;;14.53;53.38;98361.56;5076085;28;20107;-71
2023/10/20 01:22:59;;;;;;;6.53;4.00;;;;;;;14.59;53.54;98371.47;5092780;28;20157;-72
2023/10/20 01:25:28;;;;;;;5.03;3.92;;;;;;;14.51;53.60;98363.53;5094262;28;20050;-71
2023/10/20 01:27:54;;;;;;;8.00;4.35;;;;;;;14.55;53.48;98364.88;5092859;28;20024;-71
2023/10/20 01:30:19;;;;;;;7.35;4.45;;;;;;;14.50;53.71;98357.47;5092813;28;20031;-71
2023/10/20 01:32:45;;;;;;;6.25;4.53;;;;;;;14.50;53.58;98354.84;5075840;28;20040;-72
2023/10/20 01:35:10;;;;;;;6.78;4.45;;;;;;;14.49;53.45;98355.81;5092590;28;20024;-72
2023/10/20 01:37:36;;;;;;;7.00;4.78;;;;;;;14.50;53.66;98367.97;5075644;28;20043;-71
2023/10/20 01:40:01;;;;;;;6.43;4.25;;;;;;;14.44;53.68;98360.69;5075886;28;20032;-73
2023/10/20 01:42:27;;;;;;;6.68;4.25;;;;;;;14.46;53.72;98362.19;5092914;28;20039;-73
2023/10/20 01:44:52;;;;;;;7.25;4.18;;;;;;;14.43;53.81;98362.47;5094011;28;20028;-72
2023/10/20 01:47:18;;;;;;;6.90;3.92;;;;;;;14.43;53.69;98364.28;5075552;28;20097;-73
2023/10/20 01:49:43;;;;;;;9.02;3.90;;;;;;;14.41;53.84;98363.63;5092441;28;20421;-72
2023/10/20 01:52:08;;;;;;;7.20;4.32;;;;;;;14.36;53.72;98352.72;5091758;28;20422;-73
2023/10/20 01:54:34;;;;;;;7.07;4.07;;;;;;;14.26;53.91;98344.91;5092456;28;20059;-72
2023/10/20 01:56:59;;;;;;;5.80;4.22;;;;;;;14.35;53.96;98367.66;5093569;28;20470;-72
2023/10/20 01:59:25;;;;;;;6.47;4.30;;;;;;;14.34;53.92;98366.00;5093777;28;20028;-72
2023/10/20 02:01:50;;;;;;;8.82;3.75;;;;;;;14.36;53.91;98368.47;5093354;28;20039;-72
2023/10/20 02:04:17;;;;;;;6.75;4.38;;;;;;;14.30;54.05;98360.22;5092191;28;20024;-71
2023/10/20 02:06:43;;;;;;;6.82;4.32;;;;;;;14.30;53.62;98373.34;5058558;28;20028;-72
2023/10/20 02:09:09;;;;;;;6.13;3.92;;;;;;;14.28;54.13;98364.81;5075110;28;20032;-70
2023/10/20 02:11:36;;;;;;;6.38;4.20;;;;;;;14.24;54.06;98367.88;5091937;28;20067;-72
2023/10/20 02:14:03;;;;;;;7.57;4.15;;;;;;;14.23;53.99;98356.56;5074945;28;20090;-72
2023/10/20 02:16:28;;;;;;;6.70;4.22;;;;;;;14.22;53.96;98348.84;5075079;28;20035;-72
2023/10/20 02:18:54;;;;;;;7.47;3.80;;;;;;;14.23;54.16;98359.19;5091766;28;20069;-72
2023/10/20 02:21:19;;;;;;;5.80;3.92;;;;;;;14.24;54.24;98360.81;5074306;28;20047;-72
2023/10/20 02:23:45;;;;;;;5.45;3.88;;;;;;;14.23;54.19;98360.97;5091096;28;20032;-72
2023/10/20 02:26:11;;;;;;;5.22;4.00;;;;;;;14.21;54.34;98360.31;5091569;28;20035;-73
2023/10/20 02:28:36;;;;;;;5.47;3.95;;;;;;;14.15;54.17;98340.72;5091671;28;20031;-72
2023/10/20 02:31:10;;;;;;;5.93;3.92;;;;;;;14.19;54.20;98365.72;5091491;28;20036;-72
2023/10/20 02:33:36;;;;;;;8.18;4.05;;;;;;;14.17;54.32;98357.16;5059145;28;20024;-73
2023/10/20 02:36:01;;;;;;;6.65;4.50;;;;;;;14.16;54.14;98350.25;5089860;28;20097;-74
2023/10/20 02:38:27;;;;;;;7.43;3.95;;;;;;;14.17;54.19;98349.28;5074549;28;20469;-72
2023/10/20 02:40:53;;;;;;;7.70;4.55;;;;;;;14.11;54.25;98342.81;5091645;28;20120;-74
2023/10/20 02:43:18;;;;;;;7.13;4.85;;;;;;;14.14;54.38;98348.75;5091417;28;20569;-73
2023/10/20 02:45:52;;;;;;;6.20;4.05;;;;;;;14.13;54.40;98336.59;5092331;28;20107;-73
2023/10/20 02:48:18;;;;;;;6.78;4.28;;;;;;;14.13;54.57;98337.44;5058120;28;20036;-72
2023/10/20 02:50:43;;;;;;;5.75;4.38;;;;;;;14.15;54.58;98337.28;5090971;28;20153;-73
2023/10/20 02:53:09;;;;;;;7.07;4.15;;;;;;;14.11;54.58;98328.88;5091283;28;20024;-72
2023/10/20 02:55:34;;;;;;;6.28;4.15;;;;;;;14.15;54.71;98345.16;5091065;28;20081;-73
2023/10/20 02:58:00;;;;;;;5.50;4.28;;;;;;;14.09;54.76;98333.47;5090999;28;20458;-73
2023/10/20 03:00:26;;;;;;;6.68;4.22;;;;;;;14.13;54.71;98349.72;5092198;28;20051;-73
2023/10/20 03:02:53;;;;;;;5.93;3.85;;;;;;;14.11;54.60;98342.00;5073955;28;20039;-73
2023/10/20 03:05:20;;;;;;;8.63;4.57;;;;;;;14.11;54.51;98342.00;5090765;28;20035;-73
2023/10/20 03:07:49;;;;;;;4.97;4.10;;;;;;;14.11;54.81;98347.25;5073340;28;20570;-71
2023/10/20 03:10:15;;;;;;;5.57;4.20;;;;;;;14.12;54.60;98341.00;5092047;28;20050;-71
2023/10/20 03:12:40;;;;;;;6.93;3.85;;;;;;;14.05;54.66;98339.97;5056745;28;20498;-71
2023/10/20 03:15:08;;;;;;;4.85;3.55;;;;;;;14.08;54.76;98339.69;5090788;28;20016;-71
2023/10/20 03:17:33;;;;;;;5.40;4.22;;;;;;;14.09;54.87;98342.16;5090502;28;20478;-72
2023/10/20 03:19:58;;;;;;;6.82;3.95;;;;;;;14.07;54.63;98345.88;5091793;28;20031;-71
2023/10/20 03:22:24;;;;;;;8.20;4.50;;;;;;;14.07;54.89;98338.03;5056670;28;20040;-72
2023/10/20 03:24:49;;;;;;;8.23;4.43;;;;;;;14.06;54.91;98336.38;5090449;28;20055;-71
2023/10/20 03:27:15;;;;;;;6.35;4.00;;;;;;;14.01;54.87;98338.59;5090425;28;20032;-72
2023/10/20 03:29:40;;;;;;;4.78;3.85;;;;;;;14.04;54.87;98338.31;5090334;28;20474;-71
2023/10/20 03:32:06;;;;;;;5.95;3.75;;;;;;;13.97;54.96;98324.16;5090250;28;20085;-73
2023/10/20 03:34:32;;;;;;;5.80;4.00;;;;;;;14.01;54.74;98335.97;5073770;28;20020;-73
2023/10/20 03:36:59;;;;;;;5.68;4.15;;;;;;;13.98;54.73;98328.41;5090568;28;20039;-73
2023/10/20 03:39:24;;;;;;;5.90;4.22;;;;;;;13.97;55.05;98324.16;5090807;28;20032;-72
2023/10/20 03:41:50;;;;;;;4.10;3.53;;;;;;;13.97;54.74;98322.34;5073521;28;20527;-72
2023/10/20 03:44:16;;;;;;;5.13;4.03;;;;;;;13.93;54.94;98320.97;5072402;28;20070;-72
2023/10/20 03:46:56;;;;;;;6.38;4.35;;;;;;;13.91;54.87;98334.25;5073224;28;20564;-72
2023/10/20 03:49:21;;;;;;;5.68;4.00;;;;;;;13.88;55.02;98331.09;5090589;28;20032;-71
2023/10/20 03:51:50;;;;;;;5.80;4.00;;;;;;;13.86;55.14;98323.38;5090072;28;20036;-76
2023/10/20 03:54:16;;;;;;;6.07;3.80;;;;;;;13.83;54.99;98309.75;5089055;28;21907;-76
2023/10/20 03:56:42;;;;;;;7.07;4.18;;;;;;;13.86;54.97;98317.31;5073272;28;20401;-73
2023/10/20 03:59:08;;;;;;;5.55;4.40;;;;;;;13.79;55.17;98317.09;5073075;28;20038;-72
2023/10/20 04:01:34;;;;;;;7.57;3.95;;;;;;;13.81;55.29;98328.25;5089681;28;20097;-76
2023/10/20 04:03:59;;;;;;;7.28;4.07;;;;;;;13.82;55.24;98324.66;5089806;28;20040;-73
2023/10/20 04:06:25;;;;;;;7.25;4.38;;;;;;;13.75;55.21;98315.72;5089878;28;20433;-73
2023/10/20 04:11:26;;;;;;;5.85;3.38;;;;;;;13.83;59.45;98315.81;5237649;22;20059;-78
2023/10/20 04:13:51;;;;;;;6.07;3.45;;;;;;;14.11;62.75;98313.94;5118843;22;20339;-76
2023/10/20 04:16:17;;;;;;;6.72;3.63;;;;;;;14.20;61.35;98328.00;5017444;28;20098;-75
2023/10/20 04:18:43;;;;;;;5.35;3.45;;;;;;;14.13;60.25;98313.81;5016873;28;20556;-77
2023/10/20 04:21:11;;;;;;;5.95;3.63;;;;;;;14.06;59.32;98307.53;5017592;28;20108;-76
2023/10/20 04:23:37;;;;;;;4.65;3.40;;;;;;;14.11;59.08;98321.00;5017224;28;20037;-76
2023/10/20 04:26:04;;;;;;;8.90;4.20;;;;;;;14.09;58.79;98322.97;5034066;28;20040;-78
2023/10/20 04:28:33;;;;;;;6.10;3.75;;;;;;;14.06;58.44;98321.47;5017713;28;20040;-78
2023/10/20 04:50:43;;;;;;;4.47;3.40;;;;;;;14.57;57.92;98357.69;4918255;29;20161;-75
2023/10/20 04:58:24;;;;;;;19.98;5.72;;;;;;;15.49;61.97;98343.16;4918125;29;20118;-75
2023/10/20 05:01:03;;;;;;;15.93;5.38;;;;;;;15.71;59.86;98344.38;4917737;29;20126;-83
2023/10/20 05:03:45;;;;;;;15.15;5.00;;;;;;;15.91;58.22;98347.59;5017844;28;20404;-76
2023/10/20 05:06:22;;;;;;;14.10;5.10;;;;;;;16.12;56.54;98348.16;5034127;28;20033;-74
2023/10/20 05:08:48;;;;;;;18.33;4.70;;;;;;;16.35;55.26;98338.63;5018698;28;20025;-77
2023/10/20 05:11:15;;;;;;;7.65;4.22;;;;;;;16.57;54.16;98352.13;5035054;28;20347;-75
2023/10/20 05:13:41;;;;;;;7.72;4.18;;;;;;;16.78;53.37;98344.53;5017917;28;20577;-75
2023/10/20 05:16:09;;;;;;;6.78;4.05;;;;;;;17.07;52.31;98335.28;5033642;28;20061;-78
2023/10/20 05:18:38;;;;;;;7.93;3.83;;;;;;;17.42;51.43;98351.69;5033816;28;20030;-76
2023/10/20 05:21:13;;;;;;;7.90;4.00;;;;;;;17.74;53.64;98336.69;5001480;28;20033;-74
2023/10/20 05:23:40;;;;;;;7.82;3.50;;;;;;;18.48;53.08;98336.25;5003043;28;20033;-75
2023/10/20 05:26:08;;;;;;;14.68;3.40;;;;;;;18.89;49.86;98329.81;5017628;28;20045;-74
2023/10/20 05:28:34;;;;;;;10.98;3.97;;;;;;;19.21;48.10;98347.16;5019483;28;20108;-73
2023/10/20 05:30:59;;;;;;;12.57;4.05;;;;;;;19.48;47.04;98348.38;5050923;28;20471;-74
2023/10/20 05:33:26;;;;;;;7.20;3.63;;;;;;;19.82;46.09;98343.50;5053604;28;20083;-73
2023/10/20 05:35:51;;;;;;;8.88;3.72;;;;;;;20.18;44.93;98340.03;5053655;28;20449;-74
2023/10/20 05:38:17;;;;;;;10.38;3.92;;;;;;;20.66;45.01;98336.81;5053427;28;20028;-75
2023/10/20 05:40:42;;;;;;;7.93;3.60;;;;;;;21.01;43.54;98332.38;5053633;28;20108;-75
2023/10/20 05:43:08;;;;;;;7.38;3.50;;;;;;;21.41;42.41;98339.75;5019615;28;20036;-75
2023/10/20 05:45:38;;;;;;;8.10;3.85;;;;;;;21.79;41.47;98337.50;5053437;28;20029;-74
2023/10/20 05:48:05;;;;;;;5.80;3.53;;;;;;;22.20;41.01;98341.06;5018644;28;20123;-76
2023/10/20 05:50:34;;;;;;;7.10;3.50;;;;;;;22.57;40.28;98339.72;5035889;28;20568;-75
2023/10/20 05:52:59;;;;;;;7.13;3.28;;;;;;;22.97;39.53;98351.38;5035393;28;20033;-75
2023/10/20 05:55:25;;;;;;;9.82;3.58;;;;;;;23.35;38.70;98334.75;5051863;28;20032;-73
2023/10/20 05:57:51;;;;;;;8.48;3.53;;;;;;;23.73;37.63;98329.47;5035103;28;20051;-74
2023/10/20 06:00:16;;;;;;;5.90;3.47;;;;;;;24.12;36.99;98325.00;5051795;28;20033;-74
2023/10/20 06:02:44;;;;;;;5.93;3.30;;;;;;;24.50;35.92;98323.31;5061410;28;20052;-74
2023/10/20 06:05:09;;;;;;;5.13;3.30;;;;;;;24.92;35.41;98329.75;5038540;28;20113;-74
2023/10/20 06:07:35;;;;;;;7.82;3.28;;;;;;;25.27;34.66;98323.84;5073078;28;20270;-76
2023/10/20 06:10:00;;;;;;;7.18;3.35;;;;;;;25.65;33.85;98324.66;5038954;28;20055;-77
2023/10/20 06:12:26;;;;;;;7.00;3.13;;;;;;;26.08;33.39;98329.06;5021032;28;20033;-78
2023/10/20 06:14:51;;;;;;;13.02;3.08;;;;;;;26.44;32.46;98329.97;5038432;28;20060;-80
2023/10/20 06:17:18;;;;;;;6.15;3.53;;;;;;;26.83;31.73;98333.03;5038368;28;20407;-79
2023/10/20 06:19:46;;;;;;;7.28;3.17;;;;;;;27.22;31.85;98338.75;5055049;28;20407;-78
2023/10/20 06:22:12;;;;;;;8.20;3.20;;;;;;;27.60;31.51;98333.94;5056172;28;20033;-77
2023/10/20 06:24:38;;;;;;;5.28;3.20;;;;;;;27.96;30.43;98324.72;5022652;28;20106;-80
2023/10/20 06:27:04;;;;;;;6.00;3.10;;;;;;;28.37;29.98;98329.16;5039031;28;20063;-76
2023/10/20 06:32:07;;;;;;;7.40;3.28;;;;;;;29.31;29.03;98336.53;5039127;28;20043;-76
2023/10/20 06:34:35;;;;;;;58.10;8.48;;;;;;;29.99;27.68;98332.78;5041083;28;20025;-78
2023/10/20 06:37:13;;;;;;;53.80;7.93;;;;;;;30.76;26.90;98342.38;5039277;28;20147;-77
2023/10/20 06:39:38;;;;;;;;;;;;;;;31.65;25.55;98341.81;5042383;28;20271;-75
2023/10/20 06:42:09;;;;;;;34.40;6.38;;;;;;;32.45;24.58;98339.56;5037989;28;19998;-76
2023/10/20 06:44:34;;;;;;;28.23;5.90;;;;;;;33.25;23.53;98345.44;5021949;28;20498;-76
2023/10/20 06:47:00;;;;;;;25.42;5.60;;;;;;;34.02;22.71;98343.22;5037296;28;20080;-78
2023/10/20 06:49:26;;;;;;;28.17;5.18;;;;;;;34.69;21.68;98342.72;5021737;28;20078;-77
2023/10/20 06:51:51;;;;;;;25.98;5.63;;;;;;;35.43;20.80;98344.44;5038277;28;20483;-80
2023/10/20 06:54:17;;;;;;;13.80;4.30;;;;;;;36.20;19.79;98349.66;5021861;28;20036;-77
2023/10/20 06:56:43;;;;;;;13.50;4.25;;;;;;;36.97;18.99;98346.81;5037358;28;20210;-77
2023/10/20 06:59:13;;;;;;;10.93;3.97;;;;;;;37.61;18.39;98334.09;5054698;28;20551;-78
2023/10/20 07:01:40;;;;;;;11.40;3.47;;;;;;;38.17;17.73;98339.47;5039213;28;20025;-77
2023/10/20 07:04:08;;;;;;;7.63;3.38;;;;;;;38.54;17.31;98345.66;5054347;28;20032;-75
2023/10/20 07:06:37;;;;;;;8.05;2.92;;;;;;;38.73;17.02;98340.81;5038560;28;20036;-76
2023/10/20 07:09:11;;;;;;;11.63;3.72;;;;;;;38.86;16.82;98343.78;5021258;28;20028;-78
2023/10/20 07:11:38;;;;;;;7.22;3.13;;;;;;;38.76;16.99;98336.63;5055330;28;20040;-77
2023/10/20 07:14:05;;;;;;;8.55;3.63;;;;;;;38.60;16.86;98329.94;5053859;28;20028;-76
2023/10/20 07:16:31;;;;;;;9.13;3.40;;;;;;;38.22;17.67;98339.31;5037688;28;20034;-76
2023/10/20 07:18:56;;;;;;;10.07;3.38;;;;;;;37.75;17.53;98341.47;5037656;28;20060;-78
2023/10/20 07:21:22;;;;;;;6.63;3.70;;;;;;;37.28;18.18;98339.69;5020717;28;20032;-77
2023/10/20 07:23:47;;;;;;;8.32;3.67;;;;;;;36.89;18.57;98343.66;5020616;28;20074;-77
2023/10/20 07:26:17;;;;;;;12.55;3.75;;;;;;;36.63;18.85;98342.50;5037079;28;20032;-77
2023/10/20 07:28:43;;;;;;;8.50;4.00;;;;;;;36.32;19.13;98349.22;5038376;28;20029;-78
2023/10/20 07:31:12;;;;;;;12.30;4.43;;;;;;;36.07;19.53;98338.72;5020475;28;20102;-76
2023/10/20 07:33:38;;;;;;;7.43;4.35;;;;;;;35.85;19.33;98330.06;5020486;28;20043;-76
2023/10/20 07:36:06;;;;;;;8.88;4.57;;;;;;;35.73;19.70;98345.97;5036880;28;20105;-76
2023/10/20 07:38:32;;;;;;;10.38;4.88;;;;;;;35.60;19.63;98343.97;5021076;28;20116;-76
2023/10/20 07:41:06;;;;;;;13.48;4.75;;;;;;;35.47;19.98;98338.16;5020567;28;20032;-77
2023/10/20 07:43:32;;;;;;;9.68;4.53;;;;;;;35.46;19.86;98338.44;5054191;28;20032;-76
2023/10/20 07:45:57;;;;;;;10.40;4.22;;;;;;;35.42;20.14;98340.91;5036712;28;20021;-77
2023/10/20 07:48:23;;;;;;;8.18;4.05;;;;;;;35.40;19.96;98331.47;5053314;28;20071;-78
2023/10/20 07:50:48;;;;;;;8.77;3.70;;;;;;;35.38;20.06;98334.47;5020440;28;20418;-75
2023/10/20 07:53:14;;;;;;;6.60;3.67;;;;;;;35.38;20.05;98328.25;5020379;28;20052;-77
2023/10/20 07:55:42;;;;;;;12.27;3.90;;;;;;;35.38;19.94;98330.97;5053690;28;20119;-76
2023/10/20 07:58:08;;;;;;;7.90;3.90;;;;;;;35.40;20.11;98331.47;5020872;28;20031;-78
2023/10/20 08:00:34;;;;;;;9.20;3.55;;;;;;;35.39;20.01;98327.13;5020927;28;20090;-80
2023/10/20 08:03:00;;;;;;;6.68;3.50;;;;;;;35.41;19.90;98314.91;5020271;28;20465;-77
2023/10/20 08:05:26;;;;;;;7.07;3.65;;;;;;;35.38;20.14;98317.38;5020268;28;20131;-77
2023/10/20 08:07:51;;;;;;;8.50;3.67;;;;;;;35.44;19.99;98318.91;5020435;28;20024;-76
2023/10/20 08:10:17;;;;;;;5.10;3.30;;;;;;;35.54;19.75;98324.22;5037312;28;20406;-77
2023/10/20 08:12:43;;;;;;;9.25;3.47;;;;;;;35.61;19.60;98324.66;5020540;28;20070;-76
2023/10/20 08:15:08;;;;;;;7.85;3.30;;;;;;;35.72;19.70;98329.97;5053441;28;20021;-76
2023/10/20 08:17:34;;;;;;;6.95;3.55;;;;;;;35.67;19.77;98328.13;5020227;28;20112;-79
2023/10/20 08:19:59;;;;;;;8.15;3.20;;;;;;;35.65;19.71;98323.00;5019294;28;20040;-78
2023/10/20 08:22:25;;;;;;;6.50;3.50;;;;;;;35.69;19.51;98315.88;5020012;28;20505;-77
2023/10/20 08:24:51;;;;;;;8.50;3.67;;;;;;;35.72;19.64;98322.63;5020125;28;20029;-78
2023/10/20 08:27:18;;;;;;;9.25;3.50;;;;;;;35.66;19.60;98316.47;5019771;28;20129;-78
2023/10/20 08:29:48;;;;;;;9.45;3.50;;;;;;;35.59;19.85;98320.63;5020882;28;20063;-77
2023/10/20 08:32:13;;;;;;;12.30;3.85;;;;;;;35.57;19.73;98317.41;5036520;28;20032;-75
2023/10/20 08:34:39;;;;;;;10.65;4.50;;;;;;;35.53;19.67;98322.59;5020985;28;20025;-77
2023/10/20 08:37:04;;;;;;;9.88;4.28;;;;;;;35.58;19.85;98308.97;5040636;28;20520;-78
2023/10/20 08:39:30;;;;;;;14.23;4.47;;;;;;;35.55;19.68;98309.56;5024174;28;20085;-77
2023/10/20 08:41:58;;;;;;;9.55;4.00;;;;;;;35.63;19.57;98311.63;5040578;28;20120;-81
2023/10/20 08:44:25;;;;;;;9.98;4.70;;;;;;;35.68;19.56;98313.47;5041121;28;20029;-77
2023/10/20 08:46:50;;;;;;;6.72;4.15;;;;;;;35.72;19.39;98308.25;5040700;28;20024;-78
2023/10/20 08:49:18;;;;;;;13.15;4.15;;;;;;;35.87;19.47;98321.63;5056875;28;20043;-77
2023/10/20 08:51:43;;;;;;;;;;;;;;;35.94;19.14;98313.13;5024406;28;20401;-75
2023/10/20 08:54:09;;;;;;;21.80;4.50;;;;;;;35.96;19.21;98311.72;5057062;28;19912;-77
2023/10/20 08:56:34;;;;;;;9.20;4.25;;;;;;;36.23;19.17;98311.03;5056679;28;20051;-77
2023/10/20 08:59:00;;;;;;;13.98;4.72;;;;;;;36.34;18.84;98302.72;5023387;28;20040;-75
2023/10/20 09:01:25;;;;;;;9.90;4.18;;;;;;;36.62;18.75;98308.25;5039826;28;20715;-79
2023/10/20 09:03:57;;;;;;;11.60;4.50;;;;;;;36.83;18.63;98312.25;5039691;28;20056;-76
2023/10/20 09:06:24;;;;;;;12.00;4.50;;;;;;;36.70;18.54;98307.56;5040886;28;20033;-77
2023/10/20 09:08:50;;;;;;;7.32;4.28;;;;;;;36.76;18.42;98303.66;5023341;28;20482;-76
2023/10/20 09:11:16;;;;;;;11.02;4.28;;;;;;;36.87;18.24;98307.00;5023594;28;20171;-77
2023/10/20 09:13:44;;;;;;;9.82;3.85;;;;;;;36.82;18.32;98301.66;5023414;28;20457;-77
2023/10/20 09:16:10;;;;;;;9.75;3.67;;;;;;;36.76;18.46;98309.91;5023923;28;20025;-78
2023/10/20 09:18:47;;;;;;;11.98;4.45;;;;;;;36.60;18.62;98315.91;5039880;28;20028;-76
2023/10/20 09:21:14;;;;;;;11.70;4.22;;;;;;;36.56;18.68;98311.06;5023545;28;20387;-80
2023/10/20 09:23:40;;;;;;;8.20;4.20;;;;;;;36.53;18.47;98308.13;5039882;28;20033;-75
2023/10/20 09:26:06;;;;;;;9.05;4.35;;;;;;;36.52;18.66;98292.94;5023203;28;20035;-78
2023/10/20 09:28:32;;;;;;;7.57;4.20;;;;;;;36.39;18.83;98303.47;5039700;28;20028;-76
2023/10/20 09:30:59;;;;;;;15.40;5.93;;;;;;;36.09;20.03;98302.03;5040566;28;20121;-72
2023/10/20 09:33:25;;;;;;;9.95;5.57;;;;;;;35.21;19.64;98305.06;5056240;28;20398;-74
2023/10/20 09:35:52;;;;;;;8.77;5.28;;;;;;;34.79;19.63;98303.88;5022553;28;20028;-76
2023/10/20 09:38:20;;;;;;;9.60;5.18;;;;;;;34.02;19.94;98304.50;5055940;28;20040;-75
2023/10/20 09:40:45;;;;;;;;;;;;;;;33.60;21.06;98303.91;5039682;28;20036;-74
2023/10/20 09:43:23;;;;;;;11.60;5.47;;;;;;;33.51;20.65;98298.28;5055564;28;19966;-75
2023/10/20 09:45:53;;;;;;;14.02;5.53;;;;;;;32.91;21.47;98287.38;5054110;28;20313;-77
2023/10/20 09:48:19;;;;;;;14.45;6.18;;;;;;;32.61;21.62;98280.91;5038769;28;20398;-74
2023/10/20 09:50:47;;;;;;;9.55;6.03;;;;;;;32.30;22.36;98295.53;5038798;28;20103;-73
2023/10/20 09:53:15;;;;;;;10.88;5.03;;;;;;;31.82;23.90;98296.53;5055585;28;20479;-73
2023/10/20 09:55:45;;;;;;;12.10;5.60;;;;;;;31.92;23.24;98288.44;5038505;28;20051;-74
2023/10/20 09:58:11;;;;;;;10.35;5.45;;;;;;;31.96;23.46;98288.75;5038683;28;20044;-72
2023/10/20 10:00:37;;;;;;;8.77;4.90;;;;;;;31.87;23.59;98290.34;5038976;28;20079;-72
2023/10/20 10:03:03;;;;;;;19.25;5.43;;;;;;;31.82;23.91;98283.03;5034789;28;20064;-72
2023/10/20 10:05:29;;;;;;;11.98;5.50;;;;;;;31.73;23.58;98282.75;5051929;28;20041;-72
2023/10/20 10:08:08;;;;;;;13.88;6.45;;;;;;;31.68;23.24;98280.03;5052429;28;20434;-72
2023/10/20 10:10:36;;;;;;;16.08;5.10;;;;;;;31.77;24.54;98268.72;5035504;28;20021;-71
2023/10/20 10:13:05;;;;;;;15.75;5.55;;;;;;;31.83;23.95;98267.66;5035527;28;20029;-72
2023/10/20 10:15:46;;;;;;;13.30;5.50;;;;;;;31.72;23.80;98277.63;5051583;28;20107;-74
2023/10/20 10:18:12;;;;;;;12.65;5.68;;;;;;;31.63;23.41;98276.50;5052810;28;20033;-73
2023/10/20 10:20:48;;;;;;;11.02;5.13;;;;;;;31.44;24.07;98268.88;5051566;28;20060;-73
2023/10/20 10:23:16;;;;;;;8.30;5.07;;;;;;;31.43;24.78;98266.47;5017979;28;20427;-77
2023/10/20 10:25:42;;;;;;;11.82;5.82;;;;;;;31.28;24.68;98269.91;5051722;28;20108;-82
2023/10/20 10:28:26;;;;;;;13.57;7.43;;;;;;;30.65;24.20;98273.34;5035423;28;20032;-81
2023/10/20 10:30:52;;;;;;;14.02;6.88;;;;;;;30.52;24.64;98265.69;5055353;28;20036;-78
2023/10/20 10:33:22;;;;;;;15.80;7.15;;;;;;;30.22;24.96;98256.28;5034856;28;20033;-77
2023/10/20 10:35:47;;;;;;;13.43;6.50;;;;;;;30.34;24.99;98261.50;5034914;28;20506;-77
2023/10/20 10:38:23;;;;;;;15.60;7.05;;;;;;;30.21;24.77;98252.78;5052848;28;20036;-77
2023/10/20 10:40:55;;;;;;;14.60;6.35;;;;;;;30.17;25.58;98250.84;5034029;28;20032;-74
2023/10/20 10:43:21;;;;;;;17.30;6.03;;;;;;;30.12;25.86;98238.97;5035195;28;20033;-72
2023/10/20 10:45:53;;;;;;;13.73;5.35;;;;;;;29.86;26.25;98237.16;5033964;28;20029;-72
2023/10/20 10:48:18;;;;;;;12.30;5.10;;;;;;;29.62;26.51;98236.59;5052091;28;20033;-73
2023/10/20 10:50:45;;;;;;;10.13;5.00;;;;;;;29.50;26.52;98217.94;5052166;28;20075;-74
2023/10/20 10:53:11;;;;;;;9.97;4.73;;;;;;;29.46;27.03;98217.66;5017932;28;20041;-75
2023/10/20 10:55:37;;;;;;;8.73;4.45;;;;;;;29.39;26.51;98214.31;5034116;28;20047;-75
2023/10/20 10:58:07;;;;;;;10.38;4.07;;;;;;;29.27;25.98;98217.16;5032913;28;20557;-77
2023/10/20 11:00:32;;;;;;;9.93;3.80;;;;;;;29.12;26.47;98215.06;5050176;28;20095;-75
2023/10/20 11:03:00;;;;;;;10.50;4.07;;;;;;;28.92;26.94;98212.94;5033732;28;20052;-76
2023/10/20 11:05:25;;;;;;;8.77;3.80;;;;;;;28.80;27.29;98212.25;5033519;28;20044;-74
2023/10/20 11:08:11;;;;;;;6.43;3.80;;;;;;;28.79;27.80;98219.50;5017414;28;20041;-74
2023/10/20 11:10:42;;;;;;;7.32;3.60;;;;;;;28.78;27.16;98214.38;5051143;28;20114;-73
2023/10/20 11:13:13;;;;;;;5.65;3.30;;;;;;;28.60;26.99;98216.28;5050409;28;20064;-73
2023/10/20 11:15:39;;;;;;;5.38;3.33;;;;;;;28.58;27.58;98204.19;5050626;28;20028;-74
2023/10/20 11:18:06;;;;;;;7.85;3.03;;;;;;;28.51;27.16;98207.81;5050389;28;20029;-78
2023/10/20 11:20:33;;;;;;;5.05;2.95;;;;;;;28.40;27.13;98207.91;5033923;28;20132;-74
2023/10/20 11:23:00;;;;;;;8.80;3.28;;;;;;;28.30;28.08;98211.25;5050557;28;20032;-72
2023/10/20 11:25:26;;;;;;;9.18;3.67;;;;;;;28.29;28.77;98196.19;5051394;28;20415;-71
2023/10/20 11:27:55;;;;;;;6.18;3.28;;;;;;;28.33;28.96;98194.66;5033632;28;20140;-71
2023/10/20 11:30:28;;;;;;;6.65;2.92;;;;;;;28.21;28.50;98202.81;5034054;28;20418;-69
2023/10/20 11:32:54;;;;;;;4.88;3.03;;;;;;;28.03;29.37;98197.69;5049974;28;20048;-72
2023/10/20 11:35:26;;;;;;;6.18;3.28;;;;;;;27.98;28.96;98195.72;5050017;28;20021;-71
2023/10/20 11:37:56;;;;;;;9.95;3.60;;;;;;;27.79;28.21;98193.25;5050110;28;20033;-73
2023/10/20 11:40:21;;;;;;;7.28;3.13;;;;;;;27.60;29.24;98192.66;5016271;28;20128;-75
2023/10/20 11:42:48;;;;;;;9.65;2.90;;;;;;;27.55;29.57;98189.88;5049814;28;20063;-72
2023/10/20 11:45:13;;;;;;;8.68;3.55;;;;;;;27.46;29.26;98193.19;5049983;28;20029;-72
2023/10/20 11:47:39;;;;;;;8.23;3.42;;;;;;;27.14;29.71;98191.75;5033516;28;20091;-72
2023/10/20 11:50:08;;;;;;;7.45;3.33;;;;;;;27.03;30.30;98190.75;5049785;28;20033;-74
2023/10/20 11:52:40;;;;;;;7.82;3.33;;;;;;;26.98;29.89;98185.28;5033542;28;20094;-71
2023/10/20 11:55:09;;;;;;;10.88;3.40;;;;;;;26.82;29.48;98186.00;5033463;28;20557;-72
2023/10/20 11:57:35;;;;;;;6.90;3.28;;;;;;;26.68;30.56;98193.50;5049980;28;20116;-71
2023/10/20 12:00:07;;;;;;;7.70;3.20;;;;;;;26.60;30.40;98188.47;5049764;28;20480;-72